Aeroporto :
LOGIN :

Iscrizione | Disclaimer

   EN    FR    IT 

 










Sommario :    VFR   VFR Marginale   IFR   IFR Intensivo   IFR Molto Intensivo
Visibilità : 
Base nubi : 
>= 8 km
>= 3000ft
5 / 8 km
1000 / 3000 ft
1500m / 5 km
500 / 1000 ft
800 / 1500m
200 / 500 ft
< 800m
< 200 ft
Simboli :   Temporali  Nebbia  Neve Forte  Precipitazioni Forti  Vento > 20 kt
SIGMETs :   Varie  Temporali  Ghiacco  Turbolenza  Onda orograficha  Ceneri Vulcaniche






- Altitudine del aeroporto : 370 ft


EBBE - Beauvechain AB

ULTIMO METAR :
  • 190453Z 36004KT 4000 SCT004 BKN140 14/14 Q1016 YLO YLO

METARs OBSOLETI :
  • 190425Z AUTO 01004KT 5000 BKN003/// BKN140/// 14/14 Q1015 YLO
  • 190412Z AUTO 01005KT 5000 SCT003/// BKN120/// BKN140/// 14/13 Q1015 YLO
  • 190407Z AUTO 01005KT 4700 FEW003/// SCT095/// BKN120/// 14/13 Q1015 GRN
  • 190352Z AUTO 01005KT 4200 FEW003/// BKN095/// BKN120/// 14/13 Q1015 GRN
  • 190325Z AUTO 36006KT 6000 FEW004/// BKN039/// OVC095/// 14/13 Q1015 WHT
  • 190316Z AUTO 36006KT 4900 FEW004/// BKN039/// OVC095/// 14/14 Q1015 GRN
  • 190255Z AUTO 01006KT 7000 FEW004/// SCT006/// BKN008/// 14/14 Q1015 YLO
  • 190225Z AUTO 01006KT 6000 FEW003/// BKN005/// OVC007/// 14/14 Q1014 YLO
  • 190155Z AUTO 01005KT 5000 BR BKN003/// BKN005/// 14/14 Q1014 YLO
  • 190125Z AUTO 36005KT 4400 BR BKN003/// BKN024/// OVC028/// 14/14 Q1014 YLO
  • 190117Z AUTO 02005KT 4000 BR BKN003/// BKN027/// 15/14 Q1014 YLO
  • 190025Z AUTO 36008KT 5000 BR BKN002/// BKN007/// 15/14 Q1014 AMB
  • 190003Z AUTO 35007KT 3400 BR SCT002/// BKN004/// OVC007/// 15/15 Q1014 AMB

TAF TAF EBBE
Valido dal 18 a 19 ore il 19 a 07 ore UTC


181541Z 1819/1907 01005KT 6000 -RA SCT007 BKN015 OVC030
TEMPO 1813/1822 3000 RA SHRA SCT004 BKN010 OVC020



MetMap, La meteo Aeronautica in un colpo d'occhio ! - Copyright ORBIFLY Dicembre 2007 - Disclaimer

ORBIFLY MET'MAP TEAM :

Programmazione e sviluppo : Alexandra Zaïnal
Concezione : Baudouin d'Aumeries
Supporto tecnico e logistico : Manuel Goepfert
Aiuto : Marc-Olivier Méhu
Aiuto per la traduzione : Arnaldo La Scala




FONTI E CREDITI :

   NOAA